Alba Rousing — OVIL2 — position and weather

sailwx.info

Track history (hours):
 
Tides and Currents Weather Stations Pressure Air Temp Water Temp Dewpoint Dewpoint Depression Visibility Wind Speed Wind Dir Waves Ship Positions

Alba Rousing

Last reported at 2017-Jun-26 15:30 UTC. Time now 2017-Jun-26 15:34 UTC.
Position N 57°43' E 007°07'.

Length 79 m; draft 3 m.

Type: Ship. MMSI: 220439000.

Date/timePositionNaut miles runAvg speedWind from/ knotsBaromVisibWave heightAir tempDewpointWater temp
2017-Jun-26 15:30N 57°43' E 007°07'4 8.3
2017-Jun-26 15:00N 57°46' E 007°05'4 8.2
2017-Jun-26 14:30N 57°50' E 007°03'9 9.2
2017-Jun-26 13:30N 57°59' E 006°58'4 7.8
2017-Jun-26 13:00N 58°03' E 006°59'0 0.3
2017-Jun-26 12:28N 58°03' E 006°59'0 0.0
2017-Jun-26 11:58N 58°03' E 006°59'0 0.0
2017-Jun-26 11:28N 58°03' E 006°59'0 0.0
2017-Jun-26 10:52N 58°03' E 006°59'0 0.0
2017-Jun-26 10:28N 58°03' E 006°59'0 0.0
2017-Jun-26 09:52N 58°03' E 006°59'0 0.0
2017-Jun-26 09:26N 58°03' E 006°59'0 0.0
2017-Jun-26 08:58N 58°03' E 006°59'0 0.0
2017-Jun-26 08:28N 58°03' E 006°59'0 0.0
2017-Jun-26 07:58N 58°03' E 006°59'0 0.0
2017-Jun-26 07:28N 58°03' E 006°59'0 0.0
2017-Jun-26 06:58N 58°03' E 006°59'0 0.0
2017-Jun-26 06:28N 58°03' E 006°59'0 0.0
2017-Jun-26 05:59N 58°03' E 006°59'0 0.0
2017-Jun-26 05:29N 58°03' E 006°59'0 0.0
2017-Jun-26 04:59N 58°03' E 006°59'0 0.4
2017-Jun-26 04:30N 58°03' E 006°59'4 8.1
2017-Jun-26 04:00N 58°03' E 006°51'3 5.6
2017-Jun-26 03:30N 58°00' E 006°51'2 3.4
2017-Jun-26 03:00N 57°58' E 006°52'2 4.7
2017-Jun-26 02:30N 57°56' E 006°54'2 4.6
2017-Jun-26 02:00N 57°54' E 006°56'2 4.1
2017-Jun-26 01:30N 57°52' E 006°58'2 3.8
2017-Jun-26 01:00N 57°51' E 006°60'2 4.2
2017-Jun-26 00:30N 57°49' E 007°01'2 4.4
2017-Jun-26 00:00N 57°47' E 007°03'2 4.4
2017-Jun-25 23:30N 57°45' E 007°04'2 4.3
2017-Jun-25 23:00N 57°43' E 007°06'111 5.5
2017-Jun-25 03:00N 55°54' E 007°36'4 9.0
2017-Jun-25 02:30N 55°49' E 007°34'4 8.9
2017-Jun-25 02:00N 55°45' E 007°31'4 8.9
2017-Jun-25 01:30N 55°41' E 007°28'5 9.1
2017-Jun-25 01:00N 55°37' E 007°25'4 8.6
2017-Jun-25 00:30N 55°33' E 007°24'4 8.3
2017-Jun-25 00:00N 55°28' E 007°24'4 8.2
2017-Jun-24 23:29N 55°24' E 007°24'4 8.2
2017-Jun-24 22:58N 55°20' E 007°24'5 7.9
2017-Jun-24 22:21N 55°15' E 007°24'3 7.5
2017-Jun-24 22:00N 55°12' E 007°24'4 7.3
2017-Jun-24 21:30N 55°09' E 007°24'4 7.2
2017-Jun-24 21:00N 55°05' E 007°25'4 7.3
2017-Jun-24 20:30N 55°02' E 007°26'4 7.5
2017-Jun-24 20:00N 54°58' E 007°26'3 7.0
2017-Jun-24 19:30N 54°54' E 007°26'4 7.2
2017-Jun-24 19:00N 54°51' E 007°26'4 7.6
2017-Jun-24 18:30N 54°47' E 007°27'4 7.9
2017-Jun-24 18:00N 54°43' E 007°27'53 7.8
2017-Jun-24 11:08N 53°51' E 007°47'1 7.6
2017-Jun-24 11:00N 53°50' E 007°47'5 5.6
2017-Jun-24 10:10N 53°46' E 007°52'0 0.1
2017-Jun-24 08:59N 53°46' E 007°52'0 0.0
2017-Jun-24 05:38N 53°46' E 007°52'0 0.0
2017-Jun-24 05:29N 53°46' E 007°52'0 0.0
2017-Jun-24 04:57N 53°46' E 007°52'0 0.0
2017-Jun-23 22:59N 53°46' E 007°52'0 0.2
2017-Jun-23 22:30N 53°46' E 007°52'62 7.2
2017-Jun-23 13:51N 54°46' E 007°24'4 8.1
2017-Jun-23 13:19N 54°51' E 007°24'3 8.2
2017-Jun-23 13:00N 54°53' E 007°25'4 7.7
2017-Jun-23 12:30N 54°57' E 007°25'4 7.8
2017-Jun-23 12:00N 55°01' E 007°24'4 8.0
2017-Jun-23 11:30N 55°05' E 007°24'4 8.0
2017-Jun-23 11:00N 55°09' E 007°24'4 8.1
2017-Jun-23 10:30N 55°13' E 007°25'4 8.1
2017-Jun-23 10:00N 55°17' E 007°25'4 7.9
2017-Jun-23 09:30N 55°21' E 007°25'4 8.1
2017-Jun-23 08:59N 55°25' E 007°25'4 8.2
2017-Jun-23 08:30N 55°29' E 007°25'4 8.3
2017-Jun-23 08:00N 55°33' E 007°25'4 8.2
2017-Jun-23 07:30N 55°37' E 007°26'4 8.7
2017-Jun-23 07:00N 55°41' E 007°29'4 8.7
2017-Jun-23 06:30N 55°45' E 007°32'4 8.5
2017-Jun-23 06:00N 55°49' E 007°34'116 8.2
2017-Jun-22 15:57N 57°44' E 007°01'4 8.5
2017-Jun-22 15:30N 57°48' E 006°59'4 8.7
2017-Jun-22 15:00N 57°52' E 006°56'9 8.5
2017-Jun-22 14:00N 57°60' E 006°52'4 7.3
2017-Jun-22 13:30N 58°03' E 006°52'4 6.6
2017-Jun-22 12:58N 58°03' E 006°59'0 0.0
2017-Jun-22 12:28N 58°03' E 006°59'0 0.0
2017-Jun-22 11:57N 58°03' E 006°59'0 0.0
2017-Jun-22 11:28N 58°03' E 006°59'0 0.0
2017-Jun-22 10:57N 58°03' E 006°59'0 0.0
2017-Jun-22 10:28N 58°03' E 006°59'0 0.0
2017-Jun-22 09:59N 58°03' E 006°59'0 0.0
2017-Jun-22 09:29N 58°03' E 006°59'0 0.0
2017-Jun-22 08:59N 58°03' E 006°59'0 0.0
2017-Jun-22 08:29N 58°03' E 006°59'0 0.0
2017-Jun-22 07:58N 58°03' E 006°59'0 0.0
2017-Jun-22 07:29N 58°03' E 006°59'0 0.0
2017-Jun-22 06:59N 58°03' E 006°59'0 0.0
2017-Jun-22 06:29N 58°03' E 006°59'0 0.0
2017-Jun-22 05:59N 58°03' E 006°59'0 0.0
2017-Jun-22 05:29N 58°03' E 006°59'0 0.0
2017-Jun-22 04:59N 58°03' E 006°59'0 0.1
2017-Jun-22 04:31N 58°03' E 006°59'3 6.7
2017-Jun-22 04:00N 58°02' E 006°54'2 4.0
2017-Jun-22 03:30N 57°60' E 006°52'3 6.1
2017-Jun-22 03:00N 57°57' E 006°53'3 6.2
2017-Jun-22 02:30N 57°54' E 006°55'3 6.2
2017-Jun-22 02:01N 57°51' E 006°57'3 5.7
2017-Jun-22 01:30N 57°48' E 006°59'3 6.2
2017-Jun-22 01:00N 57°45' E 007°01'113 8.1
2017-Jun-21 10:59N 55°54' E 007°37'4 8.7
2017-Jun-21 10:30N 55°50' E 007°35'4 8.7
2017-Jun-21 10:00N 55°46' E 007°32'4 8.7
2017-Jun-21 09:30N 55°42' E 007°29'4 8.6
2017-Jun-21 09:00N 55°38' E 007°27'4 8.6
2017-Jun-21 08:30N 55°34' E 007°24'4 8.1
2017-Jun-21 08:00N 55°30' E 007°24'4 7.7
2017-Jun-21 07:30N 55°26' E 007°24'4 7.4
2017-Jun-21 06:59N 55°22' E 007°24'3 7.1
2017-Jun-21 06:30N 55°19' E 007°24'4 7.1
2017-Jun-21 06:01N 55°16' E 007°24'3 6.9
2017-Jun-21 05:30N 55°12' E 007°24'4 7.2
2017-Jun-21 05:01N 55°08' E 007°24'4 7.3
2017-Jun-21 04:30N 55°05' E 007°25'4 7.1
2017-Jun-21 04:00N 55°01' E 007°25'4 7.6
2017-Jun-21 03:31N 54°58' E 007°25'4 7.5
2017-Jun-21 03:01N 54°54' E 007°26'4 7.6
2017-Jun-21 02:30N 54°50' E 007°26'1 0.0
2017-Jun-19 20:00N 54°50' E 007°25'3 6.7
2017-Jun-19 19:30N 54°54' E 007°25'3 6.6
2017-Jun-19 19:00N 54°57' E 007°25'3 6.2
2017-Jun-19 18:30N 55°00' E 007°25'3 6.5
2017-Jun-19 18:00N 55°03' E 007°24'3 6.1
2017-Jun-19 17:30N 55°06' E 007°25'3 6.6
2017-Jun-19 17:00N 55°10' E 007°24'3 6.4
2017-Jun-19 16:30N 55°13' E 007°24'4 7.0
2017-Jun-19 16:00N 55°16' E 007°24'4 7.3
2017-Jun-19 15:30N 55°20' E 007°24'4 7.6
2017-Jun-19 15:00N 55°24' E 007°24'4 7.2
2017-Jun-19 14:30N 55°27' E 007°23'7 7.0
2017-Jun-19 13:30N 55°34' E 007°24'4 7.0
2017-Jun-19 13:00N 55°38' E 007°26'4 7.1
2017-Jun-19 12:30N 55°41' E 007°28'3 7.0
2017-Jun-19 12:00N 55°44' E 007°30'3 6.8
2017-Jun-19 11:30N 55°48' E 007°32'3 6.9
2017-Jun-19 11:00N 55°51' E 007°34'4 6.7
2017-Jun-19 10:28N 55°54' E 007°36'5 6.9
2017-Jun-19 09:47N 55°59' E 007°39'2 7.1
2017-Jun-19 09:30N 56°00' E 007°41'4 7.3
2017-Jun-19 09:00N 56°04' E 007°42'33 7.8
2017-Jun-19 04:47N 56°37' E 007°43'2 8.6
2017-Jun-19 04:30N 56°39' E 007°43'4 8.6
2017-Jun-19 04:00N 56°44' E 007°43'4 8.4
2017-Jun-19 03:29N 56°48' E 007°40'4 8.6
2017-Jun-19 02:59N 56°52' E 007°38'4 8.6
2017-Jun-19 02:30N 56°56' E 007°35'4 8.6
2017-Jun-19 02:00N 56°60' E 007°33'45 8.4
2017-Jun-18 20:44N 57°42' E 007°07'2 7.9
2017-Jun-18 20:29N 57°44' E 007°06'4 7.8
2017-Jun-18 20:00N 57°47' E 007°04'4 8.1
2017-Jun-18 19:30N 57°51' E 007°02'4 8.2
2017-Jun-18 19:00N 57°55' E 006°59'4 8.2
2017-Jun-18 18:30N 57°59' E 006°57'4 7.7
2017-Jun-18 18:00N 58°03' E 006°58'0 0.8
2017-Jun-18 17:29N 58°03' E 006°59'0 0.0
2017-Jun-18 16:59N 58°03' E 006°59'0 0.0
2017-Jun-18 16:29N 58°03' E 006°59'0 0.0
2017-Jun-18 15:59N 58°03' E 006°59'0 0.0
2017-Jun-18 15:29N 58°03' E 006°59'0 0.0
2017-Jun-18 14:59N 58°03' E 006°59'0 0.0
2017-Jun-18 13:56N 58°03' E 006°59'0 0.0
2017-Jun-18 13:29N 58°03' E 006°59'0 0.0
2017-Jun-18 12:59N 58°03' E 006°59'0 0.0
2017-Jun-18 12:29N 58°03' E 006°59'0 0.0
2017-Jun-18 11:56N 58°03' E 006°59'0 0.0
2017-Jun-18 11:29N 58°03' E 006°59'0 0.0
2017-Jun-18 10:59N 58°03' E 006°59'0 0.0
2017-Jun-18 10:29N 58°03' E 006°59'0 0.0
2017-Jun-18 09:59N 58°03' E 006°59'1 2.8
2017-Jun-18 09:30N 58°02' E 006°57'3 6.7
2017-Jun-18 09:00N 57°59' E 006°56'3 6.1
2017-Jun-18 08:31N 57°56' E 006°56'4 7.8
2017-Jun-18 08:00N 57°52' E 006°57'4 8.5
2017-Jun-18 07:30N 57°48' E 006°59'82 9.1
2017-Jun-17 22:31N 56°29' E 007°43'0 9.6
2017-Jun-17 22:29N 56°29' E 007°43'5 9.6
2017-Jun-17 21:59N 56°24' E 007°43'5 9.7
2017-Jun-17 21:30N 56°19' E 007°42'5 9.8
2017-Jun-17 21:00N 56°14' E 007°42'5 9.6
2017-Jun-17 20:29N 56°09' E 007°43'5 9.6
2017-Jun-17 19:55N 56°04' E 007°43'4 9.3
2017-Jun-17 19:29N 56°00' E 007°41'5 9.6
2017-Jun-17 18:59N 55°56' E 007°38'5 9.6
2017-Jun-17 18:30N 55°51' E 007°35'5 9.7
2017-Jun-17 18:00N 55°47' E 007°32'5 9.6
2017-Jun-17 17:30N 55°42' E 007°29'5 9.5
2017-Jun-17 17:00N 55°38' E 007°26'5 9.1
2017-Jun-17 16:30N 55°33' E 007°24'4 8.8
2017-Jun-17 16:00N 55°29' E 007°24'4 8.7
2017-Jun-17 15:30N 55°25' E 007°24'5 8.7
2017-Jun-17 14:56N 55°20' E 007°24'4 8.4
2017-Jun-17 14:29N 55°16' E 007°24'8 8.3
2017-Jun-17 13:30N 55°08' E 007°25'4 8.3
2017-Jun-17 13:00N 55°04' E 007°25'4 8.1
2017-Jun-17 12:30N 54°60' E 007°25'4 8.1
2017-Jun-17 12:00N 54°56' E 007°26'4 8.2
2017-Jun-17 11:30N 54°52' E 007°26'4 8.6
2017-Jun-17 11:01N 54°47' E 007°26'4 8.5
2017-Jun-17 10:30N 54°43' E 007°26'  
Track history (hours):
 
Tides and Currents Weather Stations Pressure Air Temp Water Temp Dewpoint Dewpoint Depression Visibility Wind Speed Wind Dir Waves Ship Positions

Alba Rousing

Last reported at 2017-Jun-26 15:30 UTC. Time now 2017-Jun-26 15:34 UTC.
Position N 57°43' E 007°07'.

Length 79 m; draft 3 m.

Type: Ship. MMSI: 220439000.

Date/timePositionNaut miles runAvg speedWind from/ knotsBaromVisibWave heightAir tempDewpointWater temp
2017-Jun-26 15:30N 57°43' E 007°07'4 8.3
2017-Jun-26 15:00N 57°46' E 007°05'4 8.2
2017-Jun-26 14:30N 57°50' E 007°03'9 9.2
2017-Jun-26 13:30N 57°59' E 006°58'4 7.8
2017-Jun-26 13:00N 58°03' E 006°59'0 0.3
2017-Jun-26 12:28N 58°03' E 006°59'0 0.0
2017-Jun-26 11:58N 58°03' E 006°59'0 0.0
2017-Jun-26 11:28N 58°03' E 006°59'0 0.0
2017-Jun-26 10:52N 58°03' E 006°59'0 0.0
2017-Jun-26 10:28N 58°03' E 006°59'0 0.0
2017-Jun-26 09:52N 58°03' E 006°59'0 0.0
2017-Jun-26 09:26N 58°03' E 006°59'0 0.0
2017-Jun-26 08:58N 58°03' E 006°59'0 0.0
2017-Jun-26 08:28N 58°03' E 006°59'0 0.0
2017-Jun-26 07:58N 58°03' E 006°59'0 0.0
2017-Jun-26 07:28N 58°03' E 006°59'0 0.0
2017-Jun-26 06:58N 58°03' E 006°59'0 0.0
2017-Jun-26 06:28N 58°03' E 006°59'0 0.0
2017-Jun-26 05:59N 58°03' E 006°59'0 0.0
2017-Jun-26 05:29N 58°03' E 006°59'0 0.0
2017-Jun-26 04:59N 58°03' E 006°59'0 0.4
2017-Jun-26 04:30N 58°03' E 006°59'4 8.1
2017-Jun-26 04:00N 58°03' E 006°51'3 5.6
2017-Jun-26 03:30N 58°00' E 006°51'2 3.4
2017-Jun-26 03:00N 57°58' E 006°52'2 4.7
2017-Jun-26 02:30N 57°56' E 006°54'2 4.6
2017-Jun-26 02:00N 57°54' E 006°56'2 4.1
2017-Jun-26 01:30N 57°52' E 006°58'2 3.8
2017-Jun-26 01:00N 57°51' E 006°60'2 4.2
2017-Jun-26 00:30N 57°49' E 007°01'2 4.4
2017-Jun-26 00:00N 57°47' E 007°03'2 4.4
2017-Jun-25 23:30N 57°45' E 007°04'2 4.3
2017-Jun-25 23:00N 57°43' E 007°06'111 5.5
2017-Jun-25 03:00N 55°54' E 007°36'4 9.0
2017-Jun-25 02:30N 55°49' E 007°34'4 8.9
2017-Jun-25 02:00N 55°45' E 007°31'4 8.9
2017-Jun-25 01:30N 55°41' E 007°28'5 9.1
2017-Jun-25 01:00N 55°37' E 007°25'4 8.6
2017-Jun-25 00:30N 55°33' E 007°24'4 8.3
2017-Jun-25 00:00N 55°28' E 007°24'4 8.2
2017-Jun-24 23:29N 55°24' E 007°24'4 8.2
2017-Jun-24 22:58N 55°20' E 007°24'5 7.9
2017-Jun-24 22:21N 55°15' E 007°24'3 7.5
2017-Jun-24 22:00N 55°12' E 007°24'4 7.3
2017-Jun-24 21:30N 55°09' E 007°24'4 7.2
2017-Jun-24 21:00N 55°05' E 007°25'4 7.3
2017-Jun-24 20:30N 55°02' E 007°26'4 7.5
2017-Jun-24 20:00N 54°58' E 007°26'3 7.0
2017-Jun-24 19:30N 54°54' E 007°26'4 7.2
2017-Jun-24 19:00N 54°51' E 007°26'4 7.6
2017-Jun-24 18:30N 54°47' E 007°27'4 7.9
2017-Jun-24 18:00N 54°43' E 007°27'53 7.8
2017-Jun-24 11:08N 53°51' E 007°47'1 7.6
2017-Jun-24 11:00N 53°50' E 007°47'5 5.6
2017-Jun-24 10:10N 53°46' E 007°52'0 0.1
2017-Jun-24 08:59N 53°46' E 007°52'0 0.0
2017-Jun-24 05:38N 53°46' E 007°52'0 0.0
2017-Jun-24 05:29N 53°46' E 007°52'0 0.0
2017-Jun-24 04:57N 53°46' E 007°52'0 0.0
2017-Jun-23 22:59N 53°46' E 007°52'0 0.2
2017-Jun-23 22:30N 53°46' E 007°52'62 7.2
2017-Jun-23 13:51N 54°46' E 007°24'4 8.1
2017-Jun-23 13:19N 54°51' E 007°24'3 8.2
2017-Jun-23 13:00N 54°53' E 007°25'4 7.7
2017-Jun-23 12:30N 54°57' E 007°25'4 7.8
2017-Jun-23 12:00N 55°01' E 007°24'4 8.0
2017-Jun-23 11:30N 55°05' E 007°24'4 8.0
2017-Jun-23 11:00N 55°09' E 007°24'4 8.1
2017-Jun-23 10:30N 55°13' E 007°25'4 8.1
2017-Jun-23 10:00N 55°17' E 007°25'4 7.9
2017-Jun-23 09:30N 55°21' E 007°25'4 8.1
2017-Jun-23 08:59N 55°25' E 007°25'4 8.2
2017-Jun-23 08:30N 55°29' E 007°25'4 8.3
2017-Jun-23 08:00N 55°33' E 007°25'4 8.2
2017-Jun-23 07:30N 55°37' E 007°26'4 8.7
2017-Jun-23 07:00N 55°41' E 007°29'4 8.7
2017-Jun-23 06:30N 55°45' E 007°32'4 8.5
2017-Jun-23 06:00N 55°49' E 007°34'116 8.2
2017-Jun-22 15:57N 57°44' E 007°01'4 8.5
2017-Jun-22 15:30N 57°48' E 006°59'4 8.7
2017-Jun-22 15:00N 57°52' E 006°56'9 8.5
2017-Jun-22 14:00N 57°60' E 006°52'4 7.3
2017-Jun-22 13:30N 58°03' E 006°52'4 6.6
2017-Jun-22 12:58N 58°03' E 006°59'0 0.0
2017-Jun-22 12:28N 58°03' E 006°59'0 0.0
2017-Jun-22 11:57N 58°03' E 006°59'0 0.0
2017-Jun-22 11:28N 58°03' E 006°59'0 0.0
2017-Jun-22 10:57N 58°03' E 006°59'0 0.0
2017-Jun-22 10:28N 58°03' E 006°59'0 0.0
2017-Jun-22 09:59N 58°03' E 006°59'0 0.0
2017-Jun-22 09:29N 58°03' E 006°59'0 0.0
2017-Jun-22 08:59N 58°03' E 006°59'0 0.0
2017-Jun-22 08:29N 58°03' E 006°59'0 0.0
2017-Jun-22 07:58N 58°03' E 006°59'0 0.0
2017-Jun-22 07:29N 58°03' E 006°59'0 0.0
2017-Jun-22 06:59N 58°03' E 006°59'0 0.0
2017-Jun-22 06:29N 58°03' E 006°59'0 0.0
2017-Jun-22 05:59N 58°03' E 006°59'0 0.0
2017-Jun-22 05:29N 58°03' E 006°59'0 0.0
2017-Jun-22 04:59N 58°03' E 006°59'0 0.1
2017-Jun-22 04:31N 58°03' E 006°59'3 6.7
2017-Jun-22 04:00N 58°02' E 006°54'2 4.0
2017-Jun-22 03:30N 57°60' E 006°52'3 6.1
2017-Jun-22 03:00N 57°57' E 006°53'3 6.2
2017-Jun-22 02:30N 57°54' E 006°55'3 6.2
2017-Jun-22 02:01N 57°51' E 006°57'3 5.7
2017-Jun-22 01:30N 57°48' E 006°59'3 6.2
2017-Jun-22 01:00N 57°45' E 007°01'113 8.1
2017-Jun-21 10:59N 55°54' E 007°37'4 8.7
2017-Jun-21 10:30N 55°50' E 007°35'4 8.7
2017-Jun-21 10:00N 55°46' E 007°32'4 8.7
2017-Jun-21 09:30N 55°42' E 007°29'4 8.6
2017-Jun-21 09:00N 55°38' E 007°27'4 8.6
2017-Jun-21 08:30N 55°34' E 007°24'4 8.1
2017-Jun-21 08:00N 55°30' E 007°24'4 7.7
2017-Jun-21 07:30N 55°26' E 007°24'4 7.4
2017-Jun-21 06:59N 55°22' E 007°24'3 7.1
2017-Jun-21 06:30N 55°19' E 007°24'4 7.1
2017-Jun-21 06:01N 55°16' E 007°24'3 6.9
2017-Jun-21 05:30N 55°12' E 007°24'4 7.2
2017-Jun-21 05:01N 55°08' E 007°24'4 7.3
2017-Jun-21 04:30N 55°05' E 007°25'4 7.1
2017-Jun-21 04:00N 55°01' E 007°25'4 7.6
2017-Jun-21 03:31N 54°58' E 007°25'4 7.5
2017-Jun-21 03:01N 54°54' E 007°26'4 7.6
2017-Jun-21 02:30N 54°50' E 007°26'1 0.0
2017-Jun-19 20:00N 54°50' E 007°25'3 6.7
2017-Jun-19 19:30N 54°54' E 007°25'3 6.6
2017-Jun-19 19:00N 54°57' E 007°25'3 6.2
2017-Jun-19 18:30N 55°00' E 007°25'3 6.5
2017-Jun-19 18:00N 55°03' E 007°24'3 6.1
2017-Jun-19 17:30N 55°06' E 007°25'3 6.6
2017-Jun-19 17:00N 55°10' E 007°24'3 6.4
2017-Jun-19 16:30N 55°13' E 007°24'4 7.0
2017-Jun-19 16:00N 55°16' E 007°24'4 7.3
2017-Jun-19 15:30N 55°20' E 007°24'4 7.6
2017-Jun-19 15:00N 55°24' E 007°24'4 7.2
2017-Jun-19 14:30N 55°27' E 007°23'7 7.0
2017-Jun-19 13:30N 55°34' E 007°24'4 7.0
2017-Jun-19 13:00N 55°38' E 007°26'4 7.1
2017-Jun-19 12:30N 55°41' E 007°28'3 7.0
2017-Jun-19 12:00N 55°44' E 007°30'3 6.8
2017-Jun-19 11:30N 55°48' E 007°32'3 6.9
2017-Jun-19 11:00N 55°51' E 007°34'4 6.7
2017-Jun-19 10:28N 55°54' E 007°36'5 6.9
2017-Jun-19 09:47N 55°59' E 007°39'2 7.1
2017-Jun-19 09:30N 56°00' E 007°41'4 7.3
2017-Jun-19 09:00N 56°04' E 007°42'33 7.8
2017-Jun-19 04:47N 56°37' E 007°43'2 8.6
2017-Jun-19 04:30N 56°39' E 007°43'4 8.6
2017-Jun-19 04:00N 56°44' E 007°43'4 8.4
2017-Jun-19 03:29N 56°48' E 007°40'4 8.6
2017-Jun-19 02:59N 56°52' E 007°38'4 8.6
2017-Jun-19 02:30N 56°56' E 007°35'4 8.6
2017-Jun-19 02:00N 56°60' E 007°33'45 8.4
2017-Jun-18 20:44N 57°42' E 007°07'2 7.9
2017-Jun-18 20:29N 57°44' E 007°06'4 7.8
2017-Jun-18 20:00N 57°47' E 007°04'4 8.1
2017-Jun-18 19:30N 57°51' E 007°02'4 8.2
2017-Jun-18 19:00N 57°55' E 006°59'4 8.2
2017-Jun-18 18:30N 57°59' E 006°57'4 7.7
2017-Jun-18 18:00N 58°03' E 006°58'0 0.8
2017-Jun-18 17:29N 58°03' E 006°59'0 0.0
2017-Jun-18 16:59N 58°03' E 006°59'0 0.0
2017-Jun-18 16:29N 58°03' E 006°59'0 0.0
2017-Jun-18 15:59N 58°03' E 006°59'0 0.0
2017-Jun-18 15:29N 58°03' E 006°59'0 0.0
2017-Jun-18 14:59N 58°03' E 006°59'0 0.0
2017-Jun-18 13:56N 58°03' E 006°59'0 0.0
2017-Jun-18 13:29N 58°03' E 006°59'0 0.0
2017-Jun-18 12:59N 58°03' E 006°59'0 0.0
2017-Jun-18 12:29N 58°03' E 006°59'0 0.0
2017-Jun-18 11:56N 58°03' E 006°59'0 0.0
2017-Jun-18 11:29N 58°03' E 006°59'0 0.0
2017-Jun-18 10:59N 58°03' E 006°59'0 0.0
2017-Jun-18 10:29N 58°03' E 006°59'0 0.0
2017-Jun-18 09:59N 58°03' E 006°59'1 2.8
2017-Jun-18 09:30N 58°02' E 006°57'3 6.7
2017-Jun-18 09:00N 57°59' E 006°56'3 6.1
2017-Jun-18 08:31N 57°56' E 006°56'4 7.8
2017-Jun-18 08:00N 57°52' E 006°57'4 8.5
2017-Jun-18 07:30N 57°48' E 006°59'82 9.1
2017-Jun-17 22:31N 56°29' E 007°43'0 9.6
2017-Jun-17 22:29N 56°29' E 007°43'5 9.6
2017-Jun-17 21:59N 56°24' E 007°43'5 9.7
2017-Jun-17 21:30N 56°19' E 007°42'5 9.8
2017-Jun-17 21:00N 56°14' E 007°42'5 9.6
2017-Jun-17 20:29N 56°09' E 007°43'5 9.6
2017-Jun-17 19:55N 56°04' E 007°43'4 9.3
2017-Jun-17 19:29N 56°00' E 007°41'5 9.6
2017-Jun-17 18:59N 55°56' E 007°38'5 9.6
2017-Jun-17 18:30N 55°51' E 007°35'5 9.7
2017-Jun-17 18:00N 55°47' E 007°32'5 9.6
2017-Jun-17 17:30N 55°42' E 007°29'5 9.5
2017-Jun-17 17:00N 55°38' E 007°26'5 9.1
2017-Jun-17 16:30N 55°33' E 007°24'4 8.8
2017-Jun-17 16:00N 55°29' E 007°24'4 8.7
2017-Jun-17 15:30N 55°25' E 007°24'5 8.7
2017-Jun-17 14:56N 55°20' E 007°24'4 8.4
2017-Jun-17 14:29N 55°16' E 007°24'8 8.3
2017-Jun-17 13:30N 55°08' E 007°25'4 8.3
2017-Jun-17 13:00N 55°04' E 007°25'4 8.1
2017-Jun-17 12:30N 54°60' E 007°25'4 8.1
2017-Jun-17 12:00N 54°56' E 007°26'4 8.2
2017-Jun-17 11:30N 54°52' E 007°26'4 8.6
2017-Jun-17 11:01N 54°47' E 007°26'4 8.5
2017-Jun-17 10:30N 54°43' E 007°26'  

Dump ship's entire track history